UAL169 LIPZ-KEWR
Flight info
| Callsign | UAL169 |
|---|---|
| Flight time | N/A |
| Altitude | 32000 |
| Route | ROKIB DCT RESIA DCT ELMUR DCT RIPUS DCT DITON DCT HOC DCT LUL DCT RLP DCT ROTSI DCT KOTUN DCT AMAXA DCT VESAN DCT RATUK DCT SOVAT L613 SANDY DCT OKSAW DCT TEWXI DCT LIPGO DCT BAL DCT INKUR DCT RESNO/M081F320 DCT 55N020W 55N030W 5430N04000W 5330N05000W DCT PELTU/N0472F320 N598E TAFFY/N0474F360 DCT KJOHN DCT HANAA FLOSI4 |
| Aircraft | B764/H-SDE3FGHIM3RWXY/LB1 |
Departure
| Time | 2026-05-07 06:08 |
|---|---|
| Airport | Venice Marco Polo Airport (LIPZ) |
Arrival
| Time | N/A |
|---|---|
| Airport | Newark Liberty International Airport (KEWR) |
| Time | Latitude | Longitude | Altitude | Speed | Heading |
|---|---|---|---|---|---|
| 2026-05-07 05:58 | 45.50489 | 12.34223 | 15 ft | 0 kts | 267° |
| 2026-05-07 05:59 | 45.50489 | 12.34229 | 15 ft | 2 kts | 267° |
| 2026-05-07 05:59 | 45.50490 | 12.34250 | 15 ft | 2 kts | 267° |
| 2026-05-07 05:59 | 45.50491 | 12.34271 | 15 ft | 2 kts | 267° |
| 2026-05-07 06:00 | 45.50491 | 12.34292 | 15 ft | 1 kts | 267° |
| 2026-05-07 06:00 | 45.50492 | 12.34306 | 15 ft | 2 kts | 259° |
| 2026-05-07 06:00 | 45.50498 | 12.34325 | 15 ft | 2 kts | 228° |
| 2026-05-07 06:00 | 45.50509 | 12.34338 | 15 ft | 2 kts | 204° |
| 2026-05-07 06:01 | 45.50522 | 12.34343 | 15 ft | 0 kts | 181° |
| 2026-05-07 06:01 | 45.50528 | 12.34343 | 15 ft | 1 kts | 178° |
| 2026-05-07 06:01 | 45.50529 | 12.34343 | 15 ft | 0 kts | 178° |
| 2026-05-07 06:03 | 45.50528 | 12.34343 | 15 ft | 0 kts | 178° |
| 2026-05-07 06:03 | 45.50499 | 12.34345 | 15 ft | 7 kts | 178° |
| 2026-05-07 06:03 | 45.50415 | 12.34350 | 15 ft | 17 kts | 177° |
| 2026-05-07 06:03 | 45.50293 | 12.34348 | 15 ft | 16 kts | 198° |
| 2026-05-07 06:04 | 45.50214 | 12.34257 | 16 ft | 13 kts | 223° |
| 2026-05-07 06:04 | 45.50145 | 12.34164 | 16 ft | 13 kts | 222° |
| 2026-05-07 06:04 | 45.50077 | 12.34075 | 16 ft | 12 kts | 222° |
| 2026-05-07 06:04 | 45.50019 | 12.34001 | 16 ft | 11 kts | 222° |
| 2026-05-07 06:05 | 45.49960 | 12.33925 | 16 ft | 11 kts | 222° |
| 2026-05-07 06:05 | 45.49898 | 12.33845 | 16 ft | 12 kts | 221° |
| 2026-05-07 06:05 | 45.49827 | 12.33754 | 15 ft | 16 kts | 221° |
| 2026-05-07 06:05 | 45.49718 | 12.33639 | 15 ft | 22 kts | 208° |
| 2026-05-07 06:06 | 45.49578 | 12.33522 | 15 ft | 20 kts | 172° |
| 2026-05-07 06:06 | 45.49485 | 12.33648 | 15 ft | 17 kts | 131° |
| 2026-05-07 06:06 | 45.49429 | 12.33752 | 15 ft | 13 kts | 100° |
| 2026-05-07 06:06 | 45.49486 | 12.33866 | 15 ft | 24 kts | 40° |
| 2026-05-07 06:07 | 45.49751 | 12.34194 | 16 ft | 76 kts | 43° |
| 2026-05-07 06:07 | 45.50264 | 12.34865 | 16 ft | 124 kts | 41° |
| 2026-05-07 06:07 | 45.51015 | 12.35820 | 16 ft | 167 kts | 42° |
| 2026-05-07 06:07 | 45.51949 | 12.37058 | 171 ft | 195 kts | 43° |
| 2026-05-07 06:08 | 45.52965 | 12.38494 | 492 ft | 214 kts | 49° |
| 2026-05-07 06:08 | 45.53603 | 12.40478 | 823 ft | 235 kts | 82° |
| 2026-05-07 06:08 | 45.53470 | 12.42896 | 1345 ft | 250 kts | 99° |
| 2026-05-07 06:08 | 45.53207 | 12.45162 | 2477 ft | 224 kts | 97° |
| 2026-05-07 06:09 | 45.52985 | 12.47270 | 3183 ft | 213 kts | 97° |
| 2026-05-07 06:09 | 45.52769 | 12.49348 | 3666 ft | 211 kts | 97° |
| 2026-05-07 06:09 | 45.52525 | 12.51398 | 4073 ft | 213 kts | 107° |
| 2026-05-07 06:09 | 45.51694 | 12.53162 | 4371 ft | 219 kts | 145° |
| 2026-05-07 06:10 | 45.50297 | 12.53871 | 4753 ft | 218 kts | 181° |
| 2026-05-07 06:10 | 45.48857 | 12.53299 | 5164 ft | 215 kts | 209° |
| 2026-05-07 06:10 | 45.47558 | 12.52270 | 5520 ft | 220 kts | 214° |
| 2026-05-07 06:10 | 45.46521 | 12.50573 | 5558 ft | 238 kts | 247° |
| 2026-05-07 06:11 | 45.46299 | 12.48207 | 5809 ft | 249 kts | 279° |
| 2026-05-07 06:11 | 45.46778 | 12.45871 | 6293 ft | 250 kts | 286° |
| 2026-05-07 06:11 | 45.47302 | 12.43484 | 6703 ft | 257 kts | 285° |
| 2026-05-07 06:11 | 45.47849 | 12.40958 | 6845 ft | 277 kts | 285° |
| 2026-05-07 06:12 | 45.48425 | 12.38322 | 7553 ft | 276 kts | 285° |
| 2026-05-07 06:12 | 45.48990 | 12.35730 | 8185 ft | 278 kts | 285° |
| 2026-05-07 06:12 | 45.49560 | 12.33110 | 8812 ft | 279 kts | 285° |
| 2026-05-07 06:12 | 45.50133 | 12.30474 | 9469 ft | 280 kts | 285° |
| 2026-05-07 06:13 | 45.50713 | 12.27802 | 10089 ft | 282 kts | 285° |
| 2026-05-07 06:13 | 45.51295 | 12.25114 | 10339 ft | 299 kts | 285° |
| 2026-05-07 06:13 | 45.51941 | 12.22121 | 10386 ft | 325 kts | 285° |
| 2026-05-07 06:13 | 45.52626 | 12.18966 | 10445 ft | 350 kts | 285° |
| 2026-05-07 06:14 | 45.53370 | 12.15579 | 11033 ft | 361 kts | 285° |
| 2026-05-07 06:14 | 45.54120 | 12.12147 | 11849 ft | 364 kts | 285° |
| 2026-05-07 06:14 | 45.54867 | 12.08729 | 12630 ft | 369 kts | 285° |
| 2026-05-07 06:14 | 45.55636 | 12.05203 | 13434 ft | 372 kts | 284° |
| 2026-05-07 06:15 | 45.56392 | 12.01721 | 14208 ft | 376 kts | 284° |
| 2026-05-07 06:15 | 45.57202 | 11.98194 | 15004 ft | 380 kts | 289° |
| 2026-05-07 06:15 | 45.58509 | 11.94848 | 15748 ft | 390 kts | 304° |
| 2026-05-07 06:15 | 45.60412 | 11.92106 | 16523 ft | 398 kts | 319° |
| 2026-05-07 06:16 | 45.62793 | 11.90064 | 17230 ft | 408 kts | 332° |
| 2026-05-07 06:16 | 45.65436 | 11.88428 | 17937 ft | 413 kts | 332° |
| 2026-05-07 06:16 | 45.68030 | 11.86727 | 18633 ft | 418 kts | 331° |
| 2026-05-07 06:16 | 45.70682 | 11.84972 | 19383 ft | 421 kts | 330° |
| 2026-05-07 06:17 | 45.73353 | 11.83166 | 20046 ft | 427 kts | 330° |
| 2026-05-07 06:17 | 45.76043 | 11.81325 | 20716 ft | 432 kts | 329° |
| 2026-05-07 06:17 | 45.78739 | 11.79471 | 21364 ft | 437 kts | 329° |
| 2026-05-07 06:17 | 45.81512 | 11.77559 | 22003 ft | 442 kts | 329° |
| 2026-05-07 06:18 | 45.84298 | 11.75632 | 22554 ft | 448 kts | 329° |
| 2026-05-07 06:18 | 45.87087 | 11.73702 | 23170 ft | 452 kts | 329° |
| 2026-05-07 06:18 | 45.89832 | 11.71521 | 23763 ft | 450 kts | 320° |
| 2026-05-07 06:18 | 45.92253 | 11.68753 | 24238 ft | 448 kts | 310° |
| 2026-05-07 06:19 | 45.94304 | 11.65419 | 24864 ft | 442 kts | 300° |
| 2026-05-07 06:19 | 45.95910 | 11.61697 | 25316 ft | 439 kts | 291° |
| 2026-05-07 06:19 | 45.97276 | 11.57813 | 25865 ft | 441 kts | 292° |
| 2026-05-07 06:19 | 45.98665 | 11.53898 | 26272 ft | 445 kts | 291° |
| 2026-05-07 06:20 | 46.00037 | 11.49931 | 26862 ft | 445 kts | 291° |
| 2026-05-07 06:20 | 46.01410 | 11.45919 | 27189 ft | 451 kts | 290° |
| 2026-05-07 06:20 | 46.02784 | 11.41873 | 27634 ft | 453 kts | 290° |
| 2026-05-07 06:20 | 46.04165 | 11.37787 | 28048 ft | 455 kts | 290° |
| 2026-05-07 06:21 | 46.05538 | 11.33711 | 28501 ft | 456 kts | 289° |
| 2026-05-07 06:21 | 46.06930 | 11.29560 | 28841 ft | 459 kts | 289° |
| 2026-05-07 06:21 | 46.08330 | 11.25381 | 29203 ft | 461 kts | 289° |
| 2026-05-07 06:21 | 46.09718 | 11.21226 | 29490 ft | 464 kts | 289° |
| 2026-05-07 06:22 | 46.11124 | 11.17011 | 29850 ft | 465 kts | 289° |
| 2026-05-07 06:22 | 46.13951 | 11.08512 | 30484 ft | 466 kts | 289° |
| 2026-05-07 06:22 | 46.15367 | 11.04242 | 30762 ft | 467 kts | 289° |
| 2026-05-07 06:23 | 46.16747 | 11.00075 | 31053 ft | 467 kts | 289° |
| 2026-05-07 06:23 | 46.18155 | 10.95817 | 31399 ft | 466 kts | 289° |
| 2026-05-07 06:23 | 46.19544 | 10.91607 | 31675 ft | 466 kts | 289° |
| 2026-05-07 06:23 | 46.20939 | 10.87374 | 31989 ft | 462 kts | 289° |
| 2026-05-07 06:24 | 46.23679 | 10.79039 | 31975 ft | 460 kts | 289° |
| 2026-05-07 06:24 | 46.26417 | 10.70676 | 31957 ft | 465 kts | 290° |
| 2026-05-07 06:25 | 46.29185 | 10.62204 | 31954 ft | 463 kts | 290° |
| 2026-05-07 06:25 | 46.31909 | 10.53835 | 31956 ft | 462 kts | 290° |
| 2026-05-07 06:26 | 46.34644 | 10.45404 | 31951 ft | 464 kts | 290° |
| 2026-05-07 06:26 | 46.37369 | 10.36980 | 31941 ft | 463 kts | 290° |
| 2026-05-07 06:27 | 46.40101 | 10.28504 | 31946 ft | 462 kts | 290° |
| 2026-05-07 06:27 | 46.42816 | 10.20050 | 31984 ft | 464 kts | 290° |
| 2026-05-07 06:28 | 46.45520 | 10.11608 | 31952 ft | 463 kts | 290° |
| 2026-05-07 06:28 | 46.48558 | 10.03346 | 31962 ft | 470 kts | 301° |
| 2026-05-07 06:29 | 46.52870 | 9.96064 | 31960 ft | 475 kts | 307° |
| 2026-05-07 06:29 | 46.57215 | 9.88925 | 31952 ft | 474 kts | 307° |
| 2026-05-07 06:30 | 46.61571 | 9.81737 | 31961 ft | 474 kts | 307° |
| 2026-05-07 06:30 | 46.65911 | 9.74554 | 31959 ft | 473 kts | 307° |
| 2026-05-07 06:31 | 46.70269 | 9.67322 | 31955 ft | 474 kts | 308° |
| 2026-05-07 06:31 | 46.74605 | 9.60107 | 31943 ft | 473 kts | 308° |
| 2026-05-07 06:32 | 46.78932 | 9.52888 | 31962 ft | 472 kts | 308° |
| 2026-05-07 06:32 | 46.83247 | 9.45666 | 31989 ft | 472 kts | 308° |
| 2026-05-07 06:33 | 46.87550 | 9.38447 | 31992 ft | 474 kts | 308° |
| 2026-05-07 06:33 | 46.91868 | 9.31185 | 31978 ft | 474 kts | 308° |
| 2026-05-07 06:34 | 46.96227 | 9.23835 | 31948 ft | 473 kts | 308° |
| 2026-05-07 06:34 | 47.00523 | 9.16570 | 31942 ft | 473 kts | 308° |
| 2026-05-07 06:35 | 47.04841 | 9.09247 | 31940 ft | 472 kts | 308° |
| 2026-05-07 06:35 | 47.09101 | 9.02004 | 31942 ft | 471 kts | 309° |
| 2026-05-07 06:36 | 47.13403 | 8.94646 | 31974 ft | 471 kts | 307° |
| 2026-05-07 06:36 | 47.16650 | 8.86352 | 32018 ft | 468 kts | 290° |
| 2026-05-07 06:37 | 47.19021 | 8.77417 | 32018 ft | 470 kts | 290° |
| 2026-05-07 06:37 | 47.21333 | 8.68492 | 32003 ft | 468 kts | 290° |
| 2026-05-07 06:38 | 47.23631 | 8.59489 | 32019 ft | 469 kts | 290° |
| 2026-05-07 06:38 | 47.25896 | 8.50535 | 32017 ft | 470 kts | 290° |
| 2026-05-07 06:39 | 47.28178 | 8.41493 | 32014 ft | 469 kts | 290° |
| 2026-05-07 06:39 | 47.30445 | 8.32469 | 31998 ft | 470 kts | 290° |
| 2026-05-07 06:40 | 47.32696 | 8.23434 | 32007 ft | 470 kts | 290° |
| 2026-05-07 06:40 | 47.34935 | 8.14411 | 32020 ft | 471 kts | 290° |
| 2026-05-07 06:41 | 47.37181 | 8.05321 | 32019 ft | 471 kts | 290° |
| 2026-05-07 06:41 | 47.39408 | 7.96277 | 32023 ft | 472 kts | 290° |
| 2026-05-07 06:42 | 47.41638 | 7.87181 | 32024 ft | 472 kts | 290° |
| 2026-05-07 06:42 | 47.43862 | 7.78070 | 32019 ft | 472 kts | 290° |
| 2026-05-07 06:43 | 47.46085 | 7.68927 | 32000 ft | 473 kts | 290° |
| 2026-05-07 06:43 | 47.47807 | 7.59535 | 32017 ft | 474 kts | 285° |
| 2026-05-07 06:44 | 47.49408 | 7.50096 | 32010 ft | 473 kts | 285° |
| 2026-05-07 06:44 | 47.50992 | 7.40619 | 32009 ft | 474 kts | 285° |
| 2026-05-07 06:45 | 47.52557 | 7.31181 | 32023 ft | 473 kts | 284° |
| 2026-05-07 06:45 | 47.54118 | 7.21705 | 32015 ft | 474 kts | 284° |
| 2026-05-07 06:46 | 47.55677 | 7.12186 | 32014 ft | 474 kts | 284° |
| 2026-05-07 06:46 | 47.57217 | 7.02720 | 32023 ft | 474 kts | 284° |
| 2026-05-07 06:47 | 47.58755 | 6.93220 | 32010 ft | 473 kts | 284° |
| 2026-05-07 06:47 | 47.60274 | 6.83779 | 32016 ft | 473 kts | 284° |
| 2026-05-07 06:48 | 47.61795 | 6.74277 | 32008 ft | 473 kts | 284° |
| 2026-05-07 06:48 | 47.63303 | 6.64797 | 32010 ft | 473 kts | 284° |
| 2026-05-07 06:49 | 47.64802 | 6.55320 | 32012 ft | 472 kts | 284° |
| 2026-05-07 06:49 | 47.66291 | 6.45849 | 32007 ft | 472 kts | 284° |
| 2026-05-07 06:50 | 47.67777 | 6.36347 | 32017 ft | 473 kts | 284° |
| 2026-05-07 06:50 | 47.69335 | 6.26921 | 31999 ft | 471 kts | 288° |
| 2026-05-07 06:51 | 47.71354 | 6.17640 | 32007 ft | 472 kts | 288° |
| 2026-05-07 06:51 | 47.73333 | 6.08374 | 32008 ft | 471 kts | 288° |
| 2026-05-07 06:52 | 47.75286 | 5.99142 | 32003 ft | 471 kts | 288° |
| 2026-05-07 06:52 | 47.77245 | 5.89831 | 31999 ft | 470 kts | 288° |
| 2026-05-07 06:53 | 47.79189 | 5.80542 | 31999 ft | 469 kts | 288° |
| 2026-05-07 06:53 | 47.81115 | 5.71291 | 32001 ft | 469 kts | 288° |
| 2026-05-07 06:54 | 47.83042 | 5.61989 | 32000 ft | 470 kts | 288° |
| 2026-05-07 06:54 | 47.84966 | 5.52665 | 32000 ft | 469 kts | 288° |
| 2026-05-07 06:55 | 47.86868 | 5.43403 | 32002 ft | 469 kts | 288° |
| 2026-05-07 06:55 | 47.88777 | 5.34063 | 32000 ft | 469 kts | 287° |
| 2026-05-07 06:56 | 47.91188 | 5.25057 | 32011 ft | 468 kts | 301° |
| 2026-05-07 06:56 | 47.95234 | 5.17455 | 32016 ft | 469 kts | 312° |
| 2026-05-07 06:57 | 47.99609 | 5.10193 | 32011 ft | 468 kts | 312° |
| 2026-05-07 06:57 | 48.03952 | 5.03000 | 32009 ft | 469 kts | 312° |
| 2026-05-07 06:58 | 48.08293 | 4.95799 | 32014 ft | 468 kts | 312° |
| 2026-05-07 06:58 | 48.12673 | 4.88518 | 32021 ft | 468 kts | 312° |
| 2026-05-07 06:59 | 48.17034 | 4.81251 | 32016 ft | 468 kts | 312° |
| 2026-05-07 06:59 | 48.21382 | 4.73987 | 32017 ft | 468 kts | 312° |
| 2026-05-07 07:00 | 48.25718 | 4.66723 | 32020 ft | 468 kts | 312° |
| 2026-05-07 07:00 | 48.30083 | 4.59389 | 32017 ft | 468 kts | 312° |
| 2026-05-07 07:01 | 48.34424 | 4.52075 | 32023 ft | 468 kts | 312° |
| 2026-05-07 07:01 | 48.38733 | 4.44794 | 32024 ft | 467 kts | 312° |
| 2026-05-07 07:02 | 48.43041 | 4.37497 | 32026 ft | 467 kts | 312° |
| 2026-05-07 07:02 | 48.47370 | 4.30142 | 32025 ft | 467 kts | 311° |
| 2026-05-07 07:03 | 48.51701 | 4.22764 | 32024 ft | 468 kts | 311° |
| 2026-05-07 07:03 | 48.55997 | 4.15425 | 32028 ft | 468 kts | 311° |
| 2026-05-07 07:04 | 48.60312 | 4.08032 | 32024 ft | 468 kts | 311° |
| 2026-05-07 07:04 | 48.64646 | 4.00587 | 32027 ft | 468 kts | 311° |
| 2026-05-07 07:05 | 48.68919 | 3.93226 | 32028 ft | 468 kts | 311° |
| 2026-05-07 07:05 | 48.73427 | 3.86155 | 32026 ft | 468 kts | 322° |
| 2026-05-07 07:06 | 48.78692 | 3.80343 | 32020 ft | 468 kts | 324° |
| 2026-05-07 07:06 | 48.83946 | 3.74590 | 32029 ft | 469 kts | 324° |
| 2026-05-07 07:07 | 48.89223 | 3.68803 | 32022 ft | 470 kts | 324° |
| 2026-05-07 07:07 | 48.94534 | 3.62964 | 32014 ft | 470 kts | 324° |
| 2026-05-07 07:08 | 48.99799 | 3.57162 | 32026 ft | 469 kts | 324° |
| 2026-05-07 07:08 | 49.05097 | 3.51309 | 32019 ft | 469 kts | 324° |
| 2026-05-07 07:09 | 49.10376 | 3.45461 | 32018 ft | 469 kts | 324° |
| 2026-05-07 07:09 | 49.15688 | 3.39562 | 32030 ft | 471 kts | 324° |
| 2026-05-07 07:10 | 49.20977 | 3.33671 | 32024 ft | 471 kts | 323° |
| 2026-05-07 07:10 | 49.26289 | 3.27739 | 32023 ft | 471 kts | 323° |
| 2026-05-07 07:11 | 49.31582 | 3.21812 | 32026 ft | 470 kts | 323° |
| 2026-05-07 07:11 | 49.36860 | 3.15886 | 32026 ft | 471 kts | 323° |
| 2026-05-07 07:12 | 49.42146 | 3.09936 | 32028 ft | 471 kts | 323° |
| 2026-05-07 07:12 | 49.47417 | 3.03983 | 32022 ft | 471 kts | 323° |
| 2026-05-07 07:13 | 49.52674 | 2.98032 | 32030 ft | 472 kts | 323° |
| 2026-05-07 07:13 | 49.57961 | 2.92031 | 32030 ft | 471 kts | 323° |
| 2026-05-07 07:14 | 49.63231 | 2.86032 | 32031 ft | 471 kts | 323° |
| 2026-05-07 07:14 | 49.68501 | 2.80017 | 32032 ft | 471 kts | 323° |
| 2026-05-07 07:15 | 49.73775 | 2.73981 | 32034 ft | 471 kts | 323° |
| 2026-05-07 07:15 | 49.79050 | 2.67983 | 32036 ft | 472 kts | 324° |
| 2026-05-07 07:16 | 49.84408 | 2.62054 | 32040 ft | 472 kts | 324° |
| 2026-05-07 07:16 | 49.89720 | 2.56156 | 32039 ft | 472 kts | 324° |
| 2026-05-07 07:17 | 49.95085 | 2.50176 | 32039 ft | 472 kts | 324° |
| 2026-05-07 07:17 | 50.00416 | 2.44216 | 32038 ft | 472 kts | 324° |
| 2026-05-07 07:18 | 50.05757 | 2.38231 | 32039 ft | 471 kts | 324° |
| 2026-05-07 07:18 | 50.11083 | 2.32245 | 32046 ft | 471 kts | 323° |
| 2026-05-07 07:19 | 50.16477 | 2.26166 | 32042 ft | 472 kts | 323° |
| 2026-05-07 07:19 | 50.21822 | 2.20124 | 32041 ft | 473 kts | 323° |
| 2026-05-07 07:20 | 50.27135 | 2.14101 | 32042 ft | 473 kts | 323° |
| 2026-05-07 07:20 | 50.32467 | 2.08041 | 32041 ft | 473 kts | 323° |
| 2026-05-07 07:21 | 50.37718 | 2.01927 | 32037 ft | 472 kts | 319° |
| 2026-05-07 07:21 | 50.42671 | 1.95205 | 32038 ft | 472 kts | 318° |
| 2026-05-07 07:22 | 50.47666 | 1.88397 | 32041 ft | 472 kts | 318° |
| 2026-05-07 07:22 | 50.52625 | 1.81620 | 32042 ft | 473 kts | 318° |
| 2026-05-07 07:23 | 50.57561 | 1.74852 | 32045 ft | 474 kts | 318° |
| 2026-05-07 07:23 | 50.62532 | 1.68016 | 32045 ft | 473 kts | 318° |
| 2026-05-07 07:24 | 50.67459 | 1.61216 | 32046 ft | 473 kts | 318° |
| 2026-05-07 07:24 | 50.72408 | 1.54365 | 32046 ft | 473 kts | 318° |
| 2026-05-07 07:25 | 50.79796 | 1.44099 | 32050 ft | 473 kts | 318° |
| 2026-05-07 07:26 | 50.84737 | 1.37214 | 32051 ft | 473 kts | 318° |
| 2026-05-07 07:26 | 50.89677 | 1.30313 | 32056 ft | 474 kts | 317° |
| 2026-05-07 07:27 | 50.94604 | 1.23404 | 32054 ft | 474 kts | 317° |